Time;durP1;ratioP1;P1;durP2;ratioP2;P2;SDS_P1;SDS_P2;PMS_P1;PMS_P2;Temp;Humidity;BMP_temperature;BMP_pressure;BME280_temperature;BME280_humidity;BME280_pressure;Samples;Min_cycle;Max_cycle;Signal;HPM_P1;HPM_P2
2023/11/02 00:00:35;;;;;;;;;2.33;0.33;;;;;15.69;100.00;98527.38;4957611;28;45931;-66
2023/11/02 00:03:07;;;;;;;;;7.00;2.00;;;;;15.65;100.00;98491.22;4955599;28;45466;-67
2023/11/02 00:05:55;;;;;;;;;1.00;1.00;;;;;15.65;100.00;98493.88;4953515;28;45359;-68
2023/11/02 00:08:21;;;;;;;;;3.33;1.00;;;;;15.68;100.00;98477.78;4956233;28;45362;-69
2023/11/02 00:10:46;;;;;;;;;2.00;1.00;;;;;15.68;100.00;98480.44;4957667;28;46678;-68
2023/11/02 00:13:18;;;;;;;;;1.67;0.67;;;;;15.67;100.00;98433.50;4955791;28;70817;-68
2023/11/02 00:15:46;;;;;;;;;2.33;0.00;;;;;15.64;100.00;98425.66;4956470;28;45564;-68
2023/11/02 00:18:12;;;;;;;;;1.33;1.00;;;;;15.63;100.00;98404.44;4957451;28;45454;-68
2023/11/02 00:20:37;;;;;;;;;1.33;1.00;;;;;15.60;100.00;98389.44;4955718;28;62154;-68
2023/11/02 00:23:04;;;;;;;;;5.33;0.67;;;;;15.57;100.00;98355.03;4956853;28;45436;-69
2023/11/02 00:25:35;;;;;;;;;2.00;1.00;;;;;15.57;100.00;98351.53;4955982;28;45443;-67
2023/11/02 00:28:00;;;;;;;;;1.00;1.00;;;;;15.55;100.00;98362.22;4957195;28;45557;-69
2023/11/02 00:30:25;;;;;;;;;2.67;0.00;;;;;15.53;100.00;98347.28;4956290;28;75608;-68
2023/11/02 00:32:51;;;;;;;;;3.00;0.00;;;;;15.47;100.00;98297.91;4955851;28;45380;-68
2023/11/02 00:35:16;;;;;;;;;1.33;0.67;;;;;15.44;100.00;98279.44;4956507;28;66247;-67
2023/11/02 00:37:42;;;;;;;;;1.00;0.00;;;;;15.43;100.00;98278.56;4957456;28;45388;-67
2023/11/02 00:40:08;;;;;;;;;1.00;0.00;;;;;15.43;100.00;98259.97;4956952;28;45578;-68
2023/11/02 00:42:34;;;;;;;;;6.33;0.00;;;;;15.42;100.00;98225.47;4957119;28;45894;-67
2023/11/02 00:44:59;;;;;;;;;7.00;1.00;;;;;15.42;100.00;98197.09;4956787;28;69189;-67
2023/11/02 00:47:26;;;;;;;;;1.00;1.00;;;;;15.39;100.00;98173.34;4954780;28;62221;-68
2023/11/02 00:49:54;;;;;;;;;1.00;1.00;;;;;15.37;100.00;98107.84;4956823;28;46432;-67
2023/11/02 00:52:19;;;;;;;;;0.00;0.00;;;;;15.32;100.00;98091.28;4955388;28;45573;-67
2023/11/02 00:55:01;;;;;;;;;1.00;1.00;;;;;15.30;100.00;98141.88;4954640;28;63264;-67
2023/11/02 00:57:31;;;;;;;;;2.00;0.33;;;;;15.32;100.00;98147.97;4952585;28;45407;-68
2023/11/02 00:59:57;;;;;;;;;3.00;0.00;;;;;15.28;100.00;98064.00;4955569;28;45867;-69
2023/11/02 01:02:22;;;;;;;;;1.00;1.00;;;;;15.30;100.00;98085.19;4956358;28;45463;-68
2023/11/02 01:04:54;;;;;;;;;1.00;1.00;;;;;15.34;100.00;98017.63;4960675;28;57378;-69
2023/11/02 01:07:20;;;;;;;;;4.33;2.00;;;;;15.30;100.00;97941.66;4972319;28;45359;-69
2023/11/02 01:09:56;;;;;;;;;0.33;0.00;;;;;15.27;100.00;97902.78;4959873;28;45344;-67
2023/11/02 01:12:35;;;;;;;;;0.33;0.00;;;;;15.25;100.00;97845.34;4963117;28;45295;-67
2023/11/02 01:15:02;;;;;;;;;3.00;0.00;;;;;15.23;100.00;97810.84;4955578;28;45339;-69
2023/11/02 01:17:43;;;;;;;;;1.67;0.00;;;;;15.16;100.00;97828.94;4964203;28;45477;-67
2023/11/02 01:20:14;;;;;;;;;0.00;0.00;;;;;15.15;100.00;97845.00;4959483;28;47367;-68
2023/11/02 01:22:42;;;;;;;;;4.00;1.00;;;;;15.15;100.00;97864.44;4970734;28;45542;-69
2023/11/02 01:25:11;;;;;;;;;1.00;0.00;;;;;15.14;100.00;97885.81;4966528;28;45530;-68
2023/11/02 01:27:37;;;;;;;;;0.33;0.33;;;;;15.14;100.00;97862.75;4962758;28;45761;-68
2023/11/02 01:30:10;;;;;;;;;1.67;0.00;;;;;15.15;100.00;97845.00;4961182;28;45489;-68
2023/11/02 01:32:35;;;;;;;;;2.00;0.33;;;;;15.18;100.00;97863.44;4965279;28;45638;-69
2023/11/02 01:35:10;;;;;;;;;0.67;0.67;;;;;15.21;100.00;97879.19;4963678;28;64255;-67
2023/11/02 01:37:36;;;;;;;;;2.00;1.00;;;;;15.18;100.00;97858.13;4954980;28;45454;-68
2023/11/02 01:40:08;;;;;;;;;0.00;0.00;;;;;15.18;100.00;97823.56;4959560;28;60510;-67
2023/11/02 01:42:42;;;;;;;;;0.67;0.00;;;;;15.18;100.00;97861.63;4963510;28;45444;-68
2023/11/02 01:45:11;;;;;;;;;1.00;1.00;;;;;15.14;100.00;97784.81;4961799;28;45312;-67
2023/11/02 01:48:06;;;;;;;;;0.00;0.00;;;;;15.16;100.00;97774.94;4948999;28;46555;-68
2023/11/02 01:50:32;;;;;;;;;0.67;0.00;;;;;15.14;100.00;97792.78;4936125;28;46694;-67
2023/11/02 01:53:21;;;;;;;;;1.00;1.00;;;;;15.15;100.00;97771.44;4968744;28;45341;-68
2023/11/02 01:55:57;;;;;;;;;1.00;0.00;;;;;15.12;100.00;97742.34;4973442;28;45451;-69
2023/11/02 01:58:39;;;;;;;;;0.00;0.00;;;;;15.14;100.00;97729.00;4972052;28;45380;-68
2023/11/02 02:01:09;;;;;;;;;0.00;0.00;;;;;15.12;100.00;97729.06;4956907;28;47678;-67
2023/11/02 02:03:49;;;;;;;;;0.00;0.00;;;;;15.15;100.00;97746.66;4957346;28;45470;-67
2023/11/02 02:06:30;;;;;;;;;0.00;0.00;;;;;15.22;100.00;97729.41;4959320;28;45415;-67
2023/11/02 02:09:19;;;;;;;;;3.33;0.00;;;;;15.27;100.00;97679.50;4948804;28;45413;-68
2023/11/02 02:11:49;;;;;;;;;1.33;0.00;;;;;15.28;100.00;97686.50;4958876;28;46014;-67
2023/11/02 02:14:33;;;;;;;;;0.00;0.00;;;;;15.31;100.00;97699.66;4959413;28;45244;-68
2023/11/02 02:17:15;;;;;;;;;0.00;0.00;;;;;15.33;100.00;97655.19;4965613;28;45556;-67
2023/11/02 02:19:57;;;;;;;;;2.33;0.00;;;;;15.33;100.00;97647.22;4963110;28;45634;-68
2023/11/02 02:22:35;;;;;;;;;3.00;0.67;;;;;15.37;100.00;97632.81;4968549;28;45323;-68
2023/11/02 02:25:17;;;;;;;;;0.67;0.00;;;;;15.37;100.00;97629.31;4959560;28;45458;-69
2023/11/02 02:27:53;;;;;;;;;0.00;0.00;;;;;15.38;100.00;97679.72;4968400;28;45472;-67
2023/11/02 02:30:21;;;;;;;;;0.00;0.00;;;;;15.43;100.00;97650.19;4973451;28;45946;-67
2023/11/02 02:33:05;;;;;;;;;3.00;0.00;;;;;15.50;100.00;97656.88;4968789;28;46483;-69
2023/11/02 02:35:37;;;;;;;;;1.00;0.00;;;;;15.53;100.00;97635.41;4973054;28;45412;-67
2023/11/02 02:38:11;;;;;;;;;0.00;0.00;;;;;15.58;100.00;97657.25;4965907;28;45396;-68
2023/11/02 02:40:48;;;;;;;;;0.00;0.00;;;;;15.57;100.00;97631.63;4950582;28;45544;-69
2023/11/02 02:43:16;;;;;;;;;0.00;0.00;;;;;15.62;100.00;97634.00;4951815;28;46657;-69
2023/11/02 02:45:43;;;;;;;;;2.33;0.00;;;;;15.62;100.00;97594.13;4962980;28;45472;-68
2023/11/02 02:48:10;;;;;;;;;0.00;0.00;;;;;15.67;100.00;97610.69;4954152;28;45308;-67
2023/11/02 02:50:37;;;;;;;;;0.00;0.00;;;;;15.71;100.00;97628.13;4961395;28;45559;-68
2023/11/02 02:53:03;;;;;;;;;0.00;0.00;;;;;15.68;100.00;97596.44;4959846;28;46255;-68
2023/11/02 02:55:31;;;;;;;;;0.00;0.00;;;;;15.63;100.00;97587.88;4942401;28;45388;-67
2023/11/02 02:57:58;;;;;;;;;1.33;0.00;;;;;15.65;100.00;97592.13;4953873;28;45407;-68
2023/11/02 03:00:25;;;;;;;;;1.33;1.00;;;;;15.62;100.00;97570.19;4975679;28;45242;-67
2023/11/02 03:02:52;;;;;;;;;1.00;0.00;;;;;15.63;100.00;97577.25;4971661;28;46032;-67
2023/11/02 03:05:19;;;;;;;;;0.00;0.00;;;;;15.60;100.00;97570.25;4958880;28;45304;-68
2023/11/02 03:07:46;;;;;;;;;0.00;0.00;;;;;15.61;100.00;97568.47;4952670;28;45490;-68
2023/11/02 03:10:13;;;;;;;;;1.00;0.00;;;;;15.59;100.00;97555.25;4945488;28;45543;-68
2023/11/02 03:12:41;;;;;;;;;0.00;0.00;;;;;15.65;100.00;97536.28;4966369;28;59976;-68
2023/11/02 03:15:08;;;;;;;;;1.00;0.00;;;;;15.64;100.00;97547.88;4943523;28;45480;-67
2023/11/02 03:18:11;;;;;;;;;0.00;0.00;;;;;15.70;100.00;97530.69;4959492;28;45317;-68
2023/11/02 03:20:38;;;;;;;;;0.00;0.00;;;;;15.71;100.00;97509.31;4964381;28;45309;-69
2023/11/02 03:23:12;;;;;;;;;0.00;0.00;;;;;15.70;100.00;97518.22;4970477;28;46503;-68
2023/11/02 03:25:49;;;;;;;;;0.00;0.00;;;;;15.75;100.00;97517.09;4968929;28;45545;-67
2023/11/02 03:28:15;;;;;;;;;1.00;0.00;;;;;15.80;100.00;97507.03;4972395;28;45649;-69
2023/11/02 03:30:59;;;;;;;;;0.33;0.00;;;;;15.78;100.00;97514.25;4974780;28;45378;-68
2023/11/02 03:33:38;;;;;;;;;1.00;0.00;;;;;15.83;100.00;97534.28;4966941;28;48869;-67
2023/11/02 03:36:19;;;;;;;;;0.00;0.00;;;;;15.81;100.00;97506.91;4958452;28;45385;-68
2023/11/02 03:38:53;;;;;;;;;0.00;0.00;;;;;15.85;100.00;97512.91;4963142;28;45323;-69
2023/11/02 03:41:28;;;;;;;;;0.00;0.00;;;;;15.86;100.00;97525.25;4957929;28;45371;-66
2023/11/02 03:44:03;;;;;;;;;0.00;0.00;;;;;15.90;100.00;97537.41;4962366;28;45535;-68
2023/11/02 03:46:46;;;;;;;;;3.00;0.00;;;;;15.98;100.00;97541.31;4970413;28;45435;-68
2023/11/02 03:49:27;;;;;;;;;0.00;0.00;;;;;16.04;100.00;97539.22;4960954;28;45341;-68
2023/11/02 03:52:20;;;;;;;;;2.67;0.00;;;;;16.07;100.00;97536.34;4960095;28;45443;-68
2023/11/02 03:54:57;;;;;;;;;5.00;0.00;;;;;16.08;100.00;97538.91;4953611;28;45935;-68
2023/11/02 03:57:38;;;;;;;;;2.33;0.67;;;;;16.07;100.00;97534.53;4959861;28;45479;-68
2023/11/02 04:00:15;;;;;;;;;2.00;0.00;;;;;16.06;100.00;97532.81;4967018;28;45610;-70
2023/11/02 04:02:45;;;;;;;;;5.67;0.67;;;;;16.06;100.00;97546.13;4972998;28;45447;-68
2023/11/02 04:05:13;;;;;;;;;3.00;0.00;;;;;15.97;100.00;97555.53;4961870;28;45973;-67
2023/11/02 04:07:59;;;;;;;;;0.33;0.00;;;;;15.89;100.00;97583.59;4961060;28;45438;-68
2023/11/02 04:10:26;;;;;;;;;1.33;0.00;;;;;15.83;100.00;97582.19;4963742;28;45502;-69
2023/11/02 04:13:08;;;;;;;;;1.00;0.00;;;;;15.67;100.00;97586.75;4960136;28;45332;-67
2023/11/02 04:15:34;;;;;;;;;2.33;0.00;;;;;15.55;100.00;97558.19;4958259;28;46774;-68
2023/11/02 04:17:59;;;;;;;;;0.00;0.00;;;;;15.44;100.00;97527.78;4957620;28;45389;-68
2023/11/02 04:20:26;;;;;;;;;0.00;0.00;;;;;15.42;100.00;97526.19;4961620;28;45380;-68
2023/11/02 04:22:52;;;;;;;;;0.00;0.00;;;;;15.40;100.00;97518.31;4940384;28;45340;-68
2023/11/02 04:25:17;;;;;;;;;2.00;0.00;;;;;15.38;100.00;97514.88;4945283;28;46860;-67
2023/11/02 04:27:43;;;;;;;;;0.00;0.00;;;;;15.33;100.00;97477.09;4940906;28;45366;-68
2023/11/02 04:30:08;;;;;;;;;1.00;0.00;;;;;15.30;100.00;97485.28;4920957;28;45337;-68
2023/11/02 04:32:34;;;;;;;;;1.00;0.00;;;;;15.28;100.00;97478.34;4930642;28;45547;-67
2023/11/02 04:34:59;;;;;;;;;0.00;0.00;;;;;15.24;100.00;97483.00;4948351;28;75829;-67
2023/11/02 04:37:24;;;;;;;;;0.00;0.00;;;;;15.21;100.00;97472.56;4936064;28;69355;-67
2023/11/02 04:39:50;;;;;;;;;0.00;0.00;;;;;15.19;100.00;97467.34;4936680;28;68332;-68
2023/11/02 04:42:18;;;;;;;;;0.00;0.00;;;;;15.21;100.00;97477.88;4920093;28;68464;-69
2023/11/02 04:44:44;;;;;;;;;1.00;0.00;;;;;15.16;100.00;97488.78;4933696;28;46708;-68
2023/11/02 04:47:09;;;;;;;;;0.67;0.00;;;;;15.18;100.00;97484.25;4939926;28;45433;-69
2023/11/02 04:49:34;;;;;;;;;4.00;0.00;;;;;15.18;100.00;97486.91;4925156;28;45329;-68
2023/11/02 04:52:02;;;;;;;;;1.33;0.00;;;;;15.19;100.00;97479.78;4937434;28;45465;-67
2023/11/02 04:54:29;;;;;;;;;0.67;0.67;;;;;15.20;100.00;97487.66;4912527;28;48713;-68
2023/11/02 04:56:54;;;;;;;;;2.67;0.67;;;;;15.22;100.00;97500.81;4945267;28;45500;-68
2023/11/02 04:59:20;;;;;;;;;0.00;0.00;;;;;15.23;100.00;97486.59;4922525;28;45605;-68
2023/11/02 05:01:47;;;;;;;;;3.67;0.00;;;;;15.26;100.00;97472.28;4936852;28;45375;-68
2023/11/02 05:04:12;;;;;;;;;1.00;0.00;;;;;15.26;100.00;97489.06;4952867;28;46921;-67
2023/11/02 05:06:38;;;;;;;;;4.33;1.00;;;;;15.26;100.00;97477.59;4935750;28;45396;-68
2023/11/02 05:09:04;;;;;;;;;2.33;1.00;;;;;15.26;100.00;97477.59;4934177;28;45553;-68
2023/11/02 05:11:29;;;;;;;;;1.67;1.00;;;;;15.27;100.00;97481.94;4935738;28;45406;-69
2023/11/02 05:13:54;;;;;;;;;1.33;0.33;;;;;15.31;100.00;97486.13;4936952;28;46785;-69
2023/11/02 05:16:20;;;;;;;;;2.00;0.00;;;;;15.30;100.00;97468.47;4924630;28;71684;-67
2023/11/02 05:18:45;;;;;;;;;1.00;0.00;;;;;15.31;100.00;97475.50;4933022;28;45345;-68
2023/11/02 05:21:10;;;;;;;;;2.00;1.00;;;;;15.28;100.00;97452.59;5089736;22;67673;-68
2023/11/02 05:23:36;;;;;;;;;2.00;1.00;;;;;15.30;100.00;97457.84;4994710;28;69107;-69
2023/11/02 05:26:02;;;;;;;;;2.00;1.00;;;;;15.30;100.00;97448.06;4995760;28;45404;-68
2023/11/02 05:28:27;;;;;;;;;1.00;1.00;;;;;15.32;100.00;97456.78;4995017;28;45580;-68
2023/11/02 05:30:53;;;;;;;;;3.67;1.00;;;;;15.32;100.00;97438.19;4995752;28;45608;-67
2023/11/02 05:33:18;;;;;;;;;2.00;0.00;;;;;15.33;100.00;97431.06;4994323;28;74576;-67
2023/11/02 05:35:43;;;;;;;;;1.00;1.00;;;;;15.32;100.00;97422.22;4972929;28;45476;-69
2023/11/02 05:38:09;;;;;;;;;2.00;0.33;;;;;15.31;100.00;97422.34;4994810;28;57129;-67
2023/11/02 05:40:34;;;;;;;;;4.33;0.00;;;;;15.31;100.00;97419.69;4988544;28;66166;-69
2023/11/02 05:42:59;;;;;;;;;1.00;0.33;;;;;15.28;100.00;97414.53;4990573;28;70611;-67
2023/11/02 05:45:25;;;;;;;;;2.67;1.00;;;;;15.32;100.00;97416.06;4994394;28;71493;-68
2023/11/02 05:47:50;;;;;;;;;4.33;1.00;;;;;15.31;100.00;97403.72;4977821;28;45362;-69
2023/11/02 05:50:17;;;;;;;;;5.33;1.00;;;;;15.33;100.00;97404.47;4986372;28;67674;-67
2023/11/02 05:52:42;;;;;;;;;3.67;0.33;;;;;15.33;100.00;97409.78;4995569;28;46685;-68
2023/11/02 05:55:08;;;;;;;;;3.00;0.00;;;;;15.36;100.00;97429.06;4994826;28;45353;-68
2023/11/02 05:57:33;;;;;;;;;4.00;1.00;;;;;15.35;100.00;97429.19;4995005;28;67595;-69
2023/11/02 05:59:59;;;;;;;;;2.33;1.00;;;;;15.39;100.00;97430.66;4994919;28;45608;-68
2023/11/02 06:02:25;;;;;;;;;4.00;1.00;;;;;15.37;100.00;97409.50;4995436;28;46775;-68
2023/11/02 06:04:50;;;;;;;;;8.67;3.00;;;;;15.42;100.00;97412.72;4978358;28;45561;-68
2023/11/02 06:07:15;;;;;;;;;2.67;0.33;;;;;15.39;100.00;97420.03;4998617;28;45312;-68
2023/11/02 06:09:42;;;;;;;;;3.00;1.00;;;;;15.39;100.00;97420.03;4997291;28;57566;-67
2023/11/02 06:12:09;;;;;;;;;3.67;1.00;;;;;15.41;100.00;97415.50;4993964;28;45684;-67
2023/11/02 06:14:34;;;;;;;;;4.00;2.00;;;;;15.40;100.00;97411.13;4979991;28;45493;-69
2023/11/02 06:17:00;;;;;;;;;2.00;0.67;;;;;15.37;100.00;97419.28;4997181;28;69221;-67
2023/11/02 06:19:26;;;;;;;;;8.00;1.00;;;;;15.38;100.00;97399.72;4979899;28;45383;-69
2023/11/02 06:21:51;;;;;;;;;5.00;1.00;;;;;15.34;100.00;97398.19;4993190;28;46290;-67
2023/11/02 06:24:17;;;;;;;;;3.67;1.00;;;;;15.32;100.00;97403.63;4978315;28;45403;-67
2023/11/02 06:26:42;;;;;;;;;2.00;2.00;;;;;15.30;100.00;97404.69;4992579;28;45556;-68
2023/11/02 06:29:10;;;;;;;;;5.00;0.00;;;;;15.27;100.00;97424.31;4997401;28;45470;-69
2023/11/02 06:31:36;;;;;;;;;3.00;0.00;;;;;15.29;100.00;97406.50;4993715;28;45541;-68
2023/11/02 06:34:01;;;;;;;;;3.33;1.00;;;;;15.31;100.00;97419.69;4992414;28;45357;-68
2023/11/02 06:36:27;;;;;;;;;4.33;1.00;;;;;15.30;100.00;97432.13;4995929;28;45241;-69
2023/11/02 06:38:52;;;;;;;;;4.67;1.00;;;;;15.38;100.00;97405.03;4976851;28;45605;-66
2023/11/02 06:41:18;;;;;;;;;2.00;0.33;;;;;15.40;100.00;97432.41;4988381;28;46523;-67
2023/11/02 06:43:44;;;;;;;;;3.00;1.33;;;;;15.32;100.00;97393.00;4995634;28;45349;-68
2023/11/02 06:46:09;;;;;;;;;1.33;0.00;;;;;15.34;100.00;97403.53;4973470;28;45402;-66
2023/11/02 06:48:34;;;;;;;;;2.67;0.67;;;;;15.39;100.00;97417.38;4997636;28;46467;-67
2023/11/02 06:51:00;;;;;;;;;5.67;1.67;;;;;15.38;100.00;97447.56;4995915;28;72657;-66
2023/11/02 06:53:25;;;;;;;;;3.00;0.00;;;;;15.37;100.00;97421.94;4998090;28;45416;-67
2023/11/02 06:55:51;;;;;;;;;3.33;1.00;;;;;15.35;100.00;97407.91;4998306;28;45359;-66
2023/11/02 06:58:17;;;;;;;;;4.33;0.00;;;;;15.39;100.00;97423.56;4998140;28;45418;-67
2023/11/02 07:00:43;;;;;;;;;2.00;0.67;;;;;15.42;100.00;97423.38;4995435;28;45749;-66
2023/11/02 07:03:09;;;;;;;;;2.67;1.00;;;;;15.50;100.00;97404.28;4997569;28;45470;-66
2023/11/02 07:05:34;;;;;;;;;0.00;0.00;;;;;15.55;100.00;97433.22;4986972;28;45288;-67
2023/11/02 07:07:59;;;;;;;;;1.33;1.00;;;;;15.62;100.00;97429.22;4988336;28;63262;-67
2023/11/02 07:10:26;;;;;;;;;7.00;1.00;;;;;15.62;100.00;97406.16;4988050;28;46819;-66
2023/11/02 07:12:52;;;;;;;;;3.00;2.00;;;;;15.65;100.00;97416.59;4988787;28;45492;-66
2023/11/02 07:15:17;;;;;;;;;3.33;1.33;;;;;15.65;100.00;97434.38;4994124;28;45513;-65
2023/11/02 07:17:43;;;;;;;;;4.67;1.00;;;;;15.61;100.00;97391.16;4976087;28;63729;-66
2023/11/02 07:20:09;;;;;;;;;0.00;0.00;;;;;15.65;100.00;97394.47;4976814;28;46420;-68
2023/11/02 07:22:34;;;;;;;;;3.67;1.67;;;;;15.67;100.00;97405.88;4994446;28;45596;-71
2023/11/02 07:25:01;;;;;;;;;3.33;0.33;;;;;15.64;100.00;97428.19;4985931;28;45969;-72
2023/11/02 07:27:28;;;;;;;;;2.00;1.00;;;;;15.60;100.00;97421.31;4991910;28;45617;-71
2023/11/02 07:29:54;;;;;;;;;3.67;1.00;;;;;15.57;100.00;97444.63;4994850;28;45554;-69
2023/11/02 07:32:20;;;;;;;;;3.00;1.00;;;;;15.54;100.00;97448.31;4978979;28;45502;-72
2023/11/02 07:34:46;;;;;;;;;4.33;0.67;;;;;15.54;100.00;97450.97;4996036;28;46518;-71
2023/11/02 07:37:12;;;;;;;;;0.67;0.67;;;;;15.56;100.00;97470.38;4996673;28;45246;-71
2023/11/02 07:39:37;;;;;;;;;4.33;0.00;;;;;15.50;100.00;97476.06;4975839;28;45989;-69
2023/11/02 07:42:02;;;;;;;;;2.67;0.00;;;;;15.49;100.00;97471.69;4990905;28;45471;-72
2023/11/02 07:44:28;;;;;;;;;3.00;0.00;;;;;15.46;100.00;97466.56;4977204;28;45505;-70
2023/11/02 07:46:54;;;;;;;;;0.00;0.00;;;;;15.45;100.00;97513.56;4977515;28;45406;-69
2023/11/02 07:49:19;;;;;;;;;2.67;0.33;;;;;15.49;100.00;97492.94;4964479;28;46520;-68
2023/11/02 07:51:44;;;;;;;;;1.33;0.67;;;;;15.48;100.00;97472.63;4983438;28;45521;-66
2023/11/02 07:54:10;;;;;;;;;5.33;1.00;;;;;15.50;100.00;97464.56;4964903;28;65989;-74
2023/11/02 07:56:36;;;;;;;;;2.33;0.33;;;;;15.49;100.00;97495.59;4958886;28;65631;-69
2023/11/02 07:59:02;;;;;;;;;0.00;0.00;;;;;15.50;100.00;97480.50;4982257;28;47890;-66
2023/11/02 08:01:28;;;;;;;;;3.00;1.00;;;;;15.47;100.00;97470.94;4969404;28;46503;-67
2023/11/02 08:03:53;;;;;;;;;1.00;1.00;;;;;15.44;100.00;97484.41;4984138;28;46976;-68
2023/11/02 08:06:18;;;;;;;;;3.00;0.00;;;;;15.40;100.00;97477.59;4975496;28;45278;-67
2023/11/02 08:08:44;;;;;;;;;3.00;0.00;;;;;15.36;100.00;97494.69;4985909;28;74252;-72
2023/11/02 08:11:09;;;;;;;;;3.00;1.00;;;;;15.36;100.00;97500.00;4972875;28;47160;-70
2023/11/02 08:13:35;;;;;;;;;0.67;0.00;;;;;15.33;100.00;97506.34;4988159;28;45434;-71
2023/11/02 08:16:00;;;;;;;;;2.00;0.00;;;;;15.33;100.00;97500.16;4987236;28;55753;-71
2023/11/02 08:18:26;;;;;;;;;5.00;1.00;;;;;15.25;100.00;97500.66;4994870;28;46003;-70
2023/11/02 08:20:51;;;;;;;;;4.33;1.00;;;;;15.23;100.00;97512.31;4994380;28;45347;-70
2023/11/02 08:23:16;;;;;;;;;8.00;1.67;;;;;15.18;100.00;97507.31;4993736;28;45378;-69
2023/11/02 08:25:42;;;;;;;;;0.67;0.00;;;;;15.19;100.00;97487.75;4995134;28;45474;-71
2023/11/02 08:28:07;;;;;;;;;2.00;0.00;;;;;15.15;100.00;97467.63;4977467;28;45726;-70
2023/11/02 08:30:33;;;;;;;;;0.67;0.67;;;;;15.18;100.00;97464.78;4996491;28;45617;-71
2023/11/02 08:32:58;;;;;;;;;3.00;0.00;;;;;15.18;100.00;97455.00;4995684;28;45375;-69
2023/11/02 08:35:24;;;;;;;;;2.33;0.00;;;;;15.18;100.00;97472.75;4978951;28;45742;-74
2023/11/02 08:37:49;;;;;;;;;3.67;0.33;;;;;15.18;100.00;97459.47;4993373;28;47966;-69
2023/11/02 08:40:18;;;;;;;;;7.00;0.00;;;;;15.11;100.00;97469.59;4973874;28;45427;-70
2023/11/02 08:42:44;;;;;;;;;2.00;0.00;;;;;15.10;100.00;97445.78;4979012;28;45363;-71
2023/11/02 08:45:12;;;;;;;;;2.00;1.00;;;;;15.12;100.00;97479.28;4977306;28;46391;-73
2023/11/02 08:47:37;;;;;;;;;3.67;0.00;;;;;15.15;100.00;97460.50;4977117;28;46537;-70
2023/11/02 08:50:03;;;;;;;;;1.00;1.00;;;;;15.23;100.00;97451.19;4992896;28;59403;-73
2023/11/02 08:52:28;;;;;;;;;0.00;0.00;;;;;15.20;100.00;97471.69;4991543;28;45437;-74
2023/11/02 08:54:53;;;;;;;;;7.00;1.00;;;;;15.22;100.00;97457.44;4982184;28;45576;-70
2023/11/02 08:57:19;;;;;;;;;0.00;0.00;;;;;15.27;100.00;97458.88;4990817;28;61933;-71
2023/11/02 08:59:44;;;;;;;;;3.00;0.00;;;;;15.31;100.00;97486.13;4993683;28;45343;-70
2023/11/02 09:02:10;;;;;;;;;3.67;1.00;;;;;15.39;100.00;97492.69;4991494;28;45798;-69
2023/11/02 09:04:35;;;;;;;;;2.00;0.00;;;;;15.43;100.00;97502.16;4986798;28;45453;-70
2023/11/02 09:07:01;;;;;;;;;1.00;0.00;;;;;15.43;100.00;97531.41;4970065;28;46892;-69
2023/11/02 09:09:27;;;;;;;;;1.33;0.00;;;;;15.43;100.00;97485.38;4968894;28;45489;-69
2023/11/02 09:11:52;;;;;;;;;2.33;1.00;;;;;15.45;100.00;97451.56;4985129;28;45443;-70
2023/11/02 09:14:18;;;;;;;;;2.33;0.00;;;;;15.47;100.00;97510.81;4994801;28;45661;-69
2023/11/02 09:16:43;;;;;;;;;2.00;0.67;;;;;15.45;100.00;97473.69;4995286;28;45879;-71
2023/11/02 09:19:09;;;;;;;;;4.00;1.00;;;;;15.45;100.00;97510.91;4971815;28;46455;-70
2023/11/02 09:21:37;;;;;;;;;0.67;0.00;;;;;15.48;100.00;97479.75;4992534;28;67996;-72
2023/11/02 09:24:04;;;;;;;;;0.00;0.00;;;;;15.50;100.00;97496.47;4992331;28;45452;-71
2023/11/02 09:26:30;;;;;;;;;2.67;0.00;;;;;15.54;100.00;97495.31;4977528;28;45815;-71
2023/11/02 09:28:56;;;;;;;;;0.67;0.00;;;;;15.57;100.00;97498.66;4977332;28;45513;-72
2023/11/02 09:31:22;;;;;;;;;1.67;0.00;;;;;15.55;100.00;97503.19;4994998;28;46225;-70
2023/11/02 09:33:47;;;;;;;;;0.00;0.00;;;;;15.51;100.00;97520.31;4995660;28;45513;-71
2023/11/02 09:36:13;;;;;;;;;1.00;0.00;;;;;15.54;100.00;97533.41;4995352;28;46504;-70
2023/11/02 09:38:38;;;;;;;;;1.33;0.00;;;;;15.56;100.00;97522.69;4992661;28;46943;-71
2023/11/02 09:41:04;;;;;;;;;0.00;0.00;;;;;15.60;100.00;97513.56;4994350;28;65847;-73
2023/11/02 09:43:29;;;;;;;;;1.67;0.00;;;;;15.59;100.00;97520.69;4998447;28;46563;-72
2023/11/02 09:45:56;;;;;;;;;2.00;0.00;;;;;15.58;100.00;97518.97;4981064;28;45672;-72
2023/11/02 09:48:21;;;;;;;;;0.00;0.00;;;;;15.51;100.00;97567.34;4998551;28;45483;-71
2023/11/02 09:50:47;;;;;;;;;0.67;0.00;;;;;15.55;100.00;97539.56;4997926;28;65173;-70
2023/11/02 09:53:13;;;;;;;;;1.67;0.00;;;;;15.54;100.00;97503.31;4998697;28;45573;-72
2023/11/02 09:55:40;;;;;;;;;3.33;0.00;;;;;15.51;100.00;97528.28;4998702;28;46817;-71
2023/11/02 09:58:09;;;;;;;;;1.67;0.67;;;;;15.56;100.00;97539.50;4997926;28;65318;-70
2023/11/02 10:00:35;;;;;;;;;0.00;0.00;;;;;15.60;100.00;97540.16;4995611;28;45413;-71
2023/11/02 10:03:03;;;;;;;;;3.67;0.67;;;;;15.66;100.00;97572.59;4981202;28;45524;-73
2023/11/02 10:05:29;;;;;;;;;3.00;0.00;;;;;15.69;100.00;97539.63;4998426;28;45544;-71
2023/11/02 10:07:54;;;;;;;;;0.00;0.00;;;;;15.67;100.00;97542.38;4997928;28;45473;-70
2023/11/02 10:10:21;;;;;;;;;1.00;1.00;;;;;15.77;100.00;97561.28;4980569;28;45883;-70
2023/11/02 10:12:46;;;;;;;;;1.33;1.00;;;;;15.81;100.00;97559.28;4985443;28;45539;-71
2023/11/02 10:15:16;;;;;;;;;4.00;0.00;;;;;15.83;100.00;97560.91;4985656;28;63466;-71
2023/11/02 10:17:41;;;;;;;;;2.33;0.00;;;;;15.86;100.00;97552.72;4993588;28;45503;-69
2023/11/02 10:20:08;;;;;;;;;8.00;0.00;;;;;15.89;100.00;97557.00;4976635;28;61232;-70
2023/11/02 10:22:33;;;;;;;;;0.33;0.33;;;;;15.92;100.00;97568.28;4995775;28;45488;-70
2023/11/02 10:24:58;;;;;;;;;0.33;0.33;;;;;15.96;100.00;97604.41;4994124;28;58429;-69
2023/11/02 10:27:24;;;;;;;;;2.33;0.33;;;;;16.00;100.00;97554.50;4996442;28;52021;-71
2023/11/02 10:29:50;;;;;;;;;0.00;0.00;;;;;16.09;100.00;97585.03;4985723;28;45506;-70
2023/11/02 10:32:15;;;;;;;;;0.67;0.67;;;;;16.09;100.00;97588.53;4993774;28;65573;-71
2023/11/02 10:34:43;;;;;;;;;1.33;1.00;;;;;16.08;100.00;97580.63;4971119;28;48739;-71
2023/11/02 10:37:08;;;;;;;;;3.00;0.00;;;;;16.05;100.00;97565.72;4971946;28;45577;-71
2023/11/02 10:39:35;;;;;;;;;0.67;0.67;;;;;16.07;100.00;97565.63;4995945;28;45768;-71
2023/11/02 10:42:01;;;;;;;;;0.00;0.00;;;;;16.10;100.00;97589.38;4984989;28;67888;-71
2023/11/02 10:44:28;;;;;;;;;2.67;0.00;;;;;16.12;100.00;97574.16;4964315;28;46720;-69
2023/11/02 10:46:57;;;;;;;;;1.00;0.00;;;;;16.13;100.00;97589.19;4981577;28;45542;-72
2023/11/02 10:49:31;;;;;;;;;2.00;1.00;;;;;16.18;100.00;97579.09;4984729;28;45340;-71
2023/11/02 10:52:00;;;;;;;;;1.67;0.00;;;;;16.19;100.00;97589.66;4995262;28;45479;-72
2023/11/02 10:54:46;;;;;;;;;4.00;1.00;;;;;16.24;100.00;97568.03;4989910;28;45858;-71
2023/11/02 10:57:17;;;;;;;;;0.33;0.00;;;;;16.20;100.00;97574.53;4993405;28;45494;-69
2023/11/02 10:59:44;;;;;;;;;2.00;0.00;;;;;16.30;100.00;97596.97;4984330;28;45476;-69
2023/11/02 11:02:11;;;;;;;;;3.00;1.00;;;;;16.37;100.00;97600.94;4975304;28;45347;-69
2023/11/02 11:04:40;;;;;;;;;5.00;1.00;;;;;16.39;100.00;97608.81;4987477;28;45924;-69
2023/11/02 11:07:06;;;;;;;;;0.33;0.00;;;;;16.40;100.00;97614.03;4993365;28;45491;-69
2023/11/02 11:09:32;;;;;;;;;1.33;0.00;;;;;16.42;100.00;97633.44;4971075;28;46146;-70
2023/11/02 11:11:59;;;;;;;;;0.67;0.00;;;;;16.47;100.00;97614.53;4992698;28;45640;-71
2023/11/02 11:14:27;;;;;;;;;2.67;0.00;;;;;16.49;100.00;97604.59;4979012;28;46449;-72
2023/11/02 11:16:55;;;;;;;;;3.33;1.00;;;;;16.50;100.00;97606.31;4994719;28;46750;-71
2023/11/02 11:19:21;;;;;;;;;2.00;0.00;;;;;16.53;100.00;97631.91;4995661;28;45502;-70
2023/11/02 11:21:47;;;;;;;;;0.67;0.00;;;;;16.57;100.00;97631.63;4996838;28;45441;-70
2023/11/02 11:24:16;;;;;;;;;0.00;0.00;;;;;16.57;100.00;97631.63;4977654;28;75140;-72
2023/11/02 11:26:46;;;;;;;;;0.00;0.00;;;;;16.65;100.00;97623.97;4976919;28;45550;-72
2023/11/02 11:29:36;;;;;;;;;1.00;1.00;;;;;16.76;100.00;97626.81;4978232;28;45604;-70